createdAt,value
2023-04-26T14:26:05.715Z,94562.00
2023-04-26T14:27:05.720Z,94556.00
2023-04-26T14:28:05.686Z,94554.00
2023-04-26T14:29:05.663Z,94552.00
2023-04-26T14:30:05.729Z,94556.00
2023-04-26T14:31:05.713Z,94562.00
2023-04-26T14:32:05.831Z,94562.00
2023-04-26T14:33:05.673Z,94562.00
2023-04-26T14:34:05.662Z,94564.00
2023-04-26T14:35:05.681Z,94552.00
2023-04-26T14:36:05.621Z,94552.00
2023-04-26T14:37:05.622Z,94546.00
2023-04-26T14:38:05.613Z,94544.00
2023-04-26T14:39:05.622Z,94552.00
2023-04-26T14:40:05.743Z,94552.00
2023-04-26T14:41:05.601Z,94544.00
2023-04-26T14:42:05.625Z,94550.00
2023-04-26T14:43:05.655Z,94552.00
2023-04-26T14:44:05.918Z,94552.00
2023-04-26T14:45:05.572Z,94550.00
2023-04-26T14:46:05.629Z,94548.00
2023-04-26T14:47:05.569Z,94544.00
2023-04-26T14:48:05.532Z,94552.00
2023-04-26T14:49:05.559Z,94548.00
2023-04-26T14:50:05.634Z,94544.00
2023-04-26T14:51:05.527Z,94546.00
2023-04-26T14:52:05.502Z,94540.00
2023-04-26T14:53:05.516Z,94548.00
2023-04-26T14:54:05.515Z,94542.00
2023-04-26T14:55:05.540Z,94542.00
2023-04-26T14:56:05.486Z,94538.00
2023-04-26T14:57:05.506Z,94540.00
2023-04-26T14:58:05.444Z,94536.00
2023-04-26T14:59:05.457Z,94538.00
2023-04-26T15:00:05.533Z,94532.00
2023-04-26T15:01:05.478Z,94536.00
2023-04-26T15:02:05.528Z,94532.00
2023-04-26T15:03:05.591Z,94542.00
2023-04-26T15:04:05.587Z,94530.00
2023-04-26T15:05:05.443Z,94540.00
2023-04-26T15:07:32.090Z,94534.00
2023-04-26T15:08:26.152Z,94534.00
2023-04-26T15:09:25.174Z,94532.00
2023-04-26T15:10:25.175Z,94534.00
2023-04-26T15:11:25.148Z,94538.00
2023-04-26T15:12:25.138Z,94538.00
2023-04-26T15:13:25.180Z,94530.00
2023-04-26T15:14:25.111Z,94536.00
2023-04-26T15:15:25.133Z,94536.00
2023-04-26T15:16:25.165Z,94536.00
2023-04-26T15:17:25.127Z,94536.00
2023-04-26T15:18:25.183Z,94540.00
2023-04-26T15:19:25.071Z,94536.00
2023-04-26T15:20:25.110Z,94538.00
2023-04-26T15:21:25.157Z,94530.00
2023-04-26T15:22:25.185Z,94536.00
2023-04-26T15:23:25.221Z,94534.00
2023-04-26T15:24:25.229Z,94530.00
2023-04-26T15:25:25.276Z,94528.00
2023-04-26T15:26:25.234Z,94536.00
2023-04-26T15:27:25.321Z,94538.00
2023-04-26T15:28:25.371Z,94536.00
2023-04-26T15:29:25.397Z,94534.00
2023-04-26T15:30:25.418Z,94530.00
2023-04-26T15:31:25.442Z,94534.00
2023-04-26T15:32:25.504Z,94528.00
2023-04-26T15:33:25.523Z,94532.00
2023-04-26T15:34:26.270Z,94538.00
2023-04-26T15:35:25.610Z,94544.00
2023-04-26T15:36:25.657Z,94544.00
2023-04-26T15:37:25.688Z,94540.00
2023-04-26T15:38:25.725Z,94542.00
2023-04-26T15:39:25.761Z,94544.00
2023-04-26T15:40:25.797Z,94542.00
2023-04-26T15:41:25.816Z,94542.00
2023-04-26T15:42:25.896Z,94546.00
2023-04-26T15:43:25.877Z,94550.00
2023-04-26T15:44:25.899Z,94554.00
2023-04-26T15:45:25.918Z,94552.00
2023-04-26T15:46:25.971Z,94546.00
2023-04-26T15:47:26.027Z,94546.00
2023-04-26T15:48:25.991Z,94548.00
2023-04-26T15:49:26.044Z,94552.00
2023-04-26T15:50:26.063Z,94550.00
2023-04-26T15:51:26.087Z,94540.00
2023-04-26T15:52:26.115Z,94550.00
2023-04-26T15:53:26.128Z,94546.00
2023-04-26T15:54:26.142Z,94560.00
2023-04-26T15:55:26.158Z,94550.00
2023-04-26T15:56:26.221Z,94550.00
2023-04-26T15:57:26.256Z,94544.00
2023-04-26T15:58:26.311Z,94562.00
2023-04-26T15:59:26.348Z,94552.00
2023-04-26T16:00:26.358Z,94550.00
2023-04-26T16:01:26.463Z,94558.00
2023-04-26T16:02:26.448Z,94554.00
2023-04-26T16:03:26.652Z,94560.00
2023-04-26T16:04:26.552Z,94560.00
2023-04-26T16:05:26.509Z,94577.00
2023-04-26T16:06:26.545Z,94566.00
2023-04-26T16:07:26.615Z,94560.00
2023-04-26T16:08:39.284Z,94572.00
2023-04-26T16:09:27.588Z,94568.00
2023-04-26T16:10:26.629Z,94577.00
2023-04-26T16:11:26.553Z,94572.00
2023-04-26T16:12:26.554Z,94568.00
2023-04-26T16:13:26.588Z,94568.00
2023-04-26T16:14:26.558Z,94573.00
2023-04-26T16:15:26.550Z,94581.00
2023-04-26T16:16:26.715Z,94572.00
2023-04-26T16:17:26.539Z,94564.00
2023-04-26T16:18:26.600Z,94570.00
2023-04-26T16:19:26.530Z,94581.00
2023-04-26T16:20:26.520Z,94564.00
2023-04-26T16:21:26.508Z,94562.00
2023-04-26T16:22:26.519Z,94566.00
2023-04-26T16:23:26.492Z,94573.00
2023-04-26T16:24:26.478Z,94572.00
2023-04-26T16:25:26.511Z,94572.00
2023-04-26T16:26:26.478Z,94577.00
2023-04-26T16:27:26.485Z,94568.00
2023-04-26T16:28:26.524Z,94573.00
2023-04-26T16:29:26.576Z,94575.00
2023-04-26T16:30:26.586Z,94577.00
2023-04-26T16:31:26.690Z,94581.00
2023-04-26T16:32:26.738Z,94579.00
2023-04-26T16:33:26.955Z,94579.00
2023-04-26T16:34:26.654Z,94568.00
2023-04-26T16:35:26.662Z,94577.00
2023-04-26T16:36:26.655Z,94575.00
2023-04-26T16:37:26.745Z,94572.00
2023-04-26T16:38:26.743Z,94570.00
2023-04-26T16:39:26.759Z,94568.00
2023-04-26T16:40:26.809Z,94575.00
2023-04-26T16:41:26.820Z,94572.00
2023-04-26T16:42:26.859Z,94572.00
2023-04-26T16:43:26.984Z,94566.00
2023-04-26T16:44:26.928Z,94570.00
2023-04-26T16:45:26.890Z,94570.00
2023-04-26T16:46:27.016Z,94572.00
2023-04-26T16:47:27.018Z,94570.00
2023-04-26T16:48:27.049Z,94581.00
2023-04-26T16:49:27.070Z,94568.00
2023-04-26T16:50:27.109Z,94573.00
2023-04-26T16:51:27.130Z,94570.00
2023-04-26T16:52:27.239Z,94575.00
2023-04-26T16:53:27.184Z,94573.00
2023-04-26T16:54:27.200Z,94577.00
2023-04-26T16:55:27.201Z,94575.00
2023-04-26T16:56:27.246Z,94572.00
2023-04-26T16:57:27.309Z,94573.00
2023-04-26T16:58:27.374Z,94577.00
2023-04-26T16:59:27.360Z,94577.00
2023-04-26T17:00:27.400Z,94579.00
2023-04-26T17:01:27.545Z,94577.00
2023-04-26T17:02:27.572Z,94577.00
2023-04-26T17:03:27.743Z,94577.00
2023-04-26T17:04:27.794Z,94579.00
2023-04-26T17:05:27.496Z,94581.00
2023-04-26T17:06:27.512Z,94581.00
2023-04-26T17:07:27.557Z,94585.00
2023-04-26T17:08:27.536Z,94589.00
2023-04-26T17:09:27.601Z,94583.00
2023-04-26T17:10:27.601Z,94591.00
2023-04-26T17:11:27.614Z,94597.00
2023-04-26T17:12:27.653Z,94599.00
2023-04-26T17:13:27.665Z,94597.00
2023-04-26T17:14:27.682Z,94595.00
2023-04-26T17:15:27.697Z,94609.00
2023-04-26T17:16:27.782Z,94603.00
2023-04-26T17:17:27.825Z,94603.00
2023-04-26T17:18:27.732Z,94603.00
2023-04-26T17:19:27.766Z,94605.00
2023-04-26T17:20:27.790Z,94609.00
2023-04-26T17:21:27.825Z,94611.00
2023-04-26T17:22:27.841Z,94613.00
2023-04-26T17:23:27.849Z,94615.00
2023-04-26T17:24:27.898Z,94613.00
2023-04-26T17:25:27.946Z,94628.00
2023-04-26T17:26:27.945Z,94621.00
2023-04-26T17:27:27.960Z,94619.00
2023-04-26T17:28:27.962Z,94624.00
2023-04-26T17:29:28.040Z,94624.00
2023-04-26T17:30:28.034Z,94621.00
2023-04-26T17:31:28.053Z,94621.00
2023-04-26T17:32:28.157Z,94624.00
2023-04-26T17:33:28.101Z,94624.00
2023-04-26T17:34:28.136Z,94621.00
2023-04-26T17:35:28.154Z,94630.00
2023-04-26T17:36:28.152Z,94628.00
2023-04-26T17:37:28.209Z,94634.00
2023-04-26T17:38:28.193Z,94644.00
2023-04-26T17:39:28.174Z,94644.00
2023-04-26T17:40:28.205Z,94648.00
2023-04-26T17:41:28.204Z,94642.00
2023-04-26T17:42:28.216Z,94648.00
2023-04-26T17:43:28.298Z,94648.00
2023-04-26T17:44:28.307Z,94650.00
2023-04-26T17:45:28.438Z,94650.00
2023-04-26T17:46:28.458Z,94652.00
2023-04-26T17:47:28.467Z,94652.00
2023-04-26T17:48:28.399Z,94652.00
2023-04-26T17:49:28.442Z,94650.00
2023-04-26T17:50:28.516Z,94652.00
2023-04-26T17:51:28.579Z,94658.00
2023-04-26T17:52:28.607Z,94660.00
2023-04-26T17:53:28.591Z,94660.00
2023-04-26T17:54:28.624Z,94670.00
2023-04-26T17:55:28.643Z,94670.00
2023-04-26T17:56:28.700Z,94673.00
2023-04-26T17:57:28.701Z,94670.00
2023-04-26T17:58:28.721Z,94673.00
2023-04-26T17:59:28.775Z,94681.00
2023-04-26T18:00:28.799Z,94677.00
2023-04-26T18:01:28.859Z,94675.00
2023-04-26T18:02:29.008Z,94673.00
2023-04-26T18:03:29.006Z,94679.00
2023-04-26T18:04:29.172Z,94675.00
2023-04-26T18:05:28.964Z,94681.00
2023-04-26T18:06:28.989Z,94679.00
2023-04-26T18:07:29.022Z,94679.00
2023-04-26T18:08:29.068Z,94677.00
2023-04-26T18:09:29.031Z,94677.00
2023-04-26T18:10:29.114Z,94681.00
2023-04-26T18:11:29.127Z,94681.00
2023-04-26T18:12:29.161Z,94679.00
2023-04-26T18:13:29.165Z,94683.00
2023-04-26T18:14:29.207Z,94687.00
2023-04-26T18:15:29.233Z,94691.00
2023-04-26T18:16:29.365Z,94689.00
2023-04-26T18:17:29.330Z,94687.00
2023-04-26T18:18:29.344Z,94693.00
2023-04-26T18:19:29.365Z,94695.00
2023-04-26T18:20:29.403Z,94687.00
2023-04-26T18:21:29.443Z,94703.00
2023-04-26T18:22:29.493Z,94695.00
2023-04-26T18:23:29.545Z,94697.00
2023-04-26T18:24:29.549Z,94699.00
2023-04-26T18:25:29.544Z,94697.00
2023-04-26T18:26:29.566Z,94701.00
2023-04-26T18:27:29.661Z,94697.00
2023-04-26T18:28:29.620Z,94699.00
2023-04-26T18:29:29.634Z,94701.00
2023-04-26T18:30:29.693Z,94713.00
2023-04-26T18:31:31.793Z,94709.00
2023-04-26T18:32:29.775Z,94711.00
2023-04-26T18:33:29.731Z,94711.00
2023-04-26T18:34:29.699Z,94709.00
2023-04-26T18:35:29.682Z,94709.00
2023-04-26T18:36:29.673Z,94717.00
2023-04-26T18:37:29.771Z,94711.00
2023-04-26T18:38:29.688Z,94715.00
2023-04-26T18:39:29.645Z,94715.00
2023-04-26T18:40:29.656Z,94720.00
2023-04-26T18:41:29.701Z,94720.00
2023-04-26T18:42:29.673Z,94717.00
2023-04-26T18:43:29.656Z,94722.00
2023-04-26T18:44:29.638Z,94722.00
2023-04-26T18:45:29.679Z,94724.00
2023-04-26T18:46:29.716Z,94722.00
2023-04-26T18:47:29.685Z,94722.00
2023-04-26T18:48:29.622Z,94724.00
2023-04-26T18:49:29.634Z,94730.00
2023-04-26T18:50:29.605Z,94732.00
2023-04-26T18:51:29.608Z,94736.00
2023-04-26T18:52:29.595Z,94734.00
2023-04-26T18:53:29.585Z,94740.00
2023-04-26T18:54:29.557Z,94742.00
2023-04-26T18:55:29.566Z,94744.00
2023-04-26T18:56:29.567Z,94746.00
2023-04-26T18:57:29.573Z,94748.00
2023-04-26T18:58:29.529Z,94750.00
2023-04-26T18:59:29.510Z,94752.00
2023-04-26T19:00:29.519Z,94750.00
2023-04-26T19:01:29.492Z,94748.00
2023-04-26T19:02:29.584Z,94756.00
2023-04-26T19:03:29.592Z,94760.00
2023-04-26T19:04:29.677Z,94764.00
2023-04-26T19:05:29.486Z,94766.00
2023-04-26T19:06:29.475Z,94768.00
2023-04-26T19:07:29.506Z,94768.00
2023-04-26T19:08:29.470Z,94768.00
2023-04-26T19:09:29.971Z,94768.00
2023-04-26T19:10:29.434Z,94770.00
2023-04-26T19:11:29.461Z,94770.00
2023-04-26T19:12:29.432Z,94772.00
2023-04-26T19:13:29.399Z,94775.00
2023-04-26T19:14:29.421Z,94775.00
2023-04-26T19:15:29.445Z,94775.00
2023-04-26T19:16:29.580Z,94775.00
2023-04-26T19:17:29.426Z,94777.00
2023-04-26T19:18:29.396Z,94781.00
2023-04-26T19:19:29.370Z,94781.00
2023-04-26T19:20:29.359Z,94785.00
2023-04-26T19:21:29.380Z,94783.00
2023-04-26T19:22:29.394Z,94789.00
2023-04-26T19:23:29.336Z,94789.00
2023-04-26T19:24:29.334Z,94793.00
2023-04-26T19:25:29.352Z,94791.00
2023-04-26T19:26:29.324Z,94789.00
2023-04-26T19:27:29.323Z,94793.00
2023-04-26T19:28:29.329Z,94793.00
2023-04-26T19:29:29.340Z,94799.00
2023-04-26T19:30:29.324Z,94793.00
2023-04-26T19:31:29.319Z,94795.00
2023-04-26T19:32:29.337Z,94797.00
2023-04-26T19:33:29.275Z,94801.00
2023-04-26T19:34:29.278Z,94799.00
2023-04-26T19:35:29.271Z,94803.00
2023-04-26T19:36:29.264Z,94805.00
2023-04-26T19:37:29.294Z,94807.00
2023-04-26T19:38:29.220Z,94807.00
2023-04-26T19:39:29.246Z,94803.00
2023-04-26T19:40:29.265Z,94805.00
2023-04-26T19:41:29.222Z,94805.00
2023-04-26T19:42:29.271Z,94805.00
2023-04-26T19:43:29.267Z,94805.00
2023-04-26T19:44:29.331Z,94805.00
2023-04-26T19:45:29.360Z,94807.00
2023-04-26T19:46:29.402Z,94807.00
2023-04-26T19:47:29.473Z,94813.00
2023-04-26T19:48:29.396Z,94815.00
2023-04-26T19:49:29.433Z,94819.00
2023-04-26T19:50:29.480Z,94819.00
2023-04-26T19:51:29.480Z,94819.00
2023-04-26T19:52:29.501Z,94821.00
2023-04-26T19:53:29.446Z,94822.00
2023-04-26T19:54:29.503Z,94822.00
2023-04-26T19:55:29.511Z,94824.00
2023-04-26T19:56:29.527Z,94824.00
2023-04-26T19:57:29.569Z,94828.00
2023-04-26T19:58:29.565Z,94828.00
2023-04-26T19:59:29.587Z,94830.00
2023-04-26T20:00:29.653Z,94830.00
2023-04-26T20:01:29.763Z,94828.00
2023-04-26T20:02:29.797Z,94832.00
2023-04-26T20:03:29.922Z,94834.00
2023-04-26T20:04:29.762Z,94834.00
2023-04-26T20:05:29.716Z,94836.00
2023-04-26T20:06:29.701Z,94836.00
2023-04-26T20:07:29.727Z,94838.00
2023-04-26T20:08:31.407Z,94840.00
2023-04-26T20:09:29.758Z,94836.00
2023-04-26T20:10:29.754Z,94838.00
2023-04-26T20:11:29.805Z,94840.00
2023-04-26T20:12:29.818Z,94838.00
2023-04-26T20:13:29.857Z,94844.00
2023-04-26T20:14:29.905Z,94846.00
2023-04-26T20:15:31.562Z,94848.00
2023-04-26T20:16:29.876Z,94848.00
2023-04-26T20:17:29.895Z,94852.00
2023-04-26T20:18:29.809Z,94850.00
2023-04-26T20:19:29.794Z,94858.00
2023-04-26T20:20:29.868Z,94856.00
2023-04-26T20:21:29.827Z,94856.00
2023-04-26T20:22:29.823Z,94854.00
2023-04-26T20:23:29.811Z,94856.00
2023-04-26T20:24:29.817Z,94854.00
2023-04-26T20:25:29.821Z,94854.00
2023-04-26T20:26:29.812Z,94856.00
2023-04-26T20:27:29.799Z,94856.00
2023-04-26T20:28:29.750Z,94862.00
2023-04-26T20:29:29.763Z,94862.00
2023-04-26T20:30:29.746Z,94862.00
2023-04-26T20:31:29.868Z,94860.00
2023-04-26T20:32:29.766Z,94860.00
2023-04-26T20:33:29.746Z,94860.00
2023-04-26T20:34:29.717Z,94858.00
2023-04-26T20:35:29.689Z,94862.00
2023-04-26T20:36:29.712Z,94856.00
2023-04-26T20:37:29.722Z,94860.00
2023-04-26T20:38:29.692Z,94860.00
2023-04-26T20:39:29.696Z,94862.00
2023-04-26T20:40:29.686Z,94864.00
2023-04-26T20:41:29.696Z,94864.00
2023-04-26T20:42:29.701Z,94864.00
2023-04-26T20:43:29.665Z,94866.00
2023-04-26T20:44:29.665Z,94866.00
2023-04-26T20:45:29.644Z,94868.00
2023-04-26T20:46:29.789Z,94869.00
2023-04-26T20:47:29.697Z,94869.00
2023-04-26T20:48:29.645Z,94871.00
2023-04-26T20:49:29.611Z,94871.00
2023-04-26T20:50:29.609Z,94873.00
2023-04-26T20:51:29.609Z,94875.00
2023-04-26T20:52:29.600Z,94877.00
2023-04-26T20:53:29.569Z,94877.00
2023-04-26T20:54:29.572Z,94879.00
2023-04-26T20:55:29.552Z,94881.00
2023-04-26T20:56:29.563Z,94881.00
2023-04-26T20:57:29.540Z,94879.00
2023-04-26T20:58:29.544Z,94883.00
2023-04-26T20:59:29.557Z,94881.00
2023-04-26T21:00:29.516Z,94883.00
2023-04-26T21:01:29.551Z,94881.00
2023-04-26T21:02:29.646Z,94883.00
2023-04-26T21:03:29.725Z,94883.00
2023-04-26T21:04:29.678Z,94885.00
2023-04-26T21:05:29.493Z,94883.00
2023-04-26T21:06:29.515Z,94887.00
2023-04-26T21:07:29.480Z,94885.00
2023-04-26T21:08:29.457Z,94885.00
2023-04-26T21:09:29.430Z,94889.00
2023-04-26T21:10:29.493Z,94885.00
2023-04-26T21:11:29.435Z,94885.00
2023-04-26T21:12:29.484Z,94887.00
2023-04-26T21:13:29.485Z,94889.00
2023-04-26T21:14:29.525Z,94889.00
2023-04-26T21:15:29.615Z,94891.00
2023-04-26T21:16:29.701Z,94889.00
2023-04-26T21:17:29.632Z,94899.00
2023-04-26T21:18:29.606Z,94891.00
2023-04-26T21:19:29.643Z,94889.00
2023-04-26T21:20:29.700Z,94899.00
2023-04-26T21:21:29.722Z,94889.00
2023-04-26T21:22:29.696Z,94901.00
2023-04-26T21:23:29.732Z,94899.00
2023-04-26T21:24:29.783Z,94901.00
2023-04-26T21:25:29.749Z,94901.00
2023-04-26T21:26:29.755Z,94901.00
2023-04-26T21:27:29.768Z,94899.00
2023-04-26T21:28:29.766Z,94903.00
2023-04-26T21:29:29.812Z,94901.00
2023-04-26T21:30:29.823Z,94901.00
2023-04-26T21:31:29.857Z,94903.00
2023-04-26T21:32:29.828Z,94903.00
2023-04-26T21:33:29.882Z,94905.00
2023-04-26T21:34:29.910Z,94903.00
2023-04-26T21:35:29.947Z,94907.00
2023-04-26T21:36:29.956Z,94907.00
2023-04-26T21:37:29.951Z,94909.00
2023-04-26T21:38:29.974Z,94909.00
2023-04-26T21:39:29.997Z,94905.00
2023-04-26T21:40:30.058Z,94905.00
2023-04-26T21:41:30.047Z,94905.00
2023-04-26T21:42:30.051Z,94905.00
2023-04-26T21:43:30.052Z,94907.00
2023-04-26T21:44:30.082Z,94907.00
2023-04-26T21:45:30.118Z,94909.00
2023-04-26T21:46:30.154Z,94903.00
2023-04-26T21:47:30.190Z,94905.00
2023-04-26T21:48:30.141Z,94903.00
2023-04-26T21:49:30.161Z,94903.00
2023-04-26T21:50:30.172Z,94903.00
2023-04-26T21:51:30.228Z,94905.00
2023-04-26T21:52:30.235Z,94905.00
2023-04-26T21:53:30.319Z,94907.00
2023-04-26T21:54:30.273Z,94907.00
2023-04-26T21:55:30.290Z,94907.00
2023-04-26T21:56:30.309Z,94905.00
2023-04-26T21:57:30.318Z,94911.00
2023-04-26T21:58:30.333Z,94909.00
2023-04-26T21:59:30.371Z,94909.00
2023-04-26T22:00:30.520Z,94909.00
2023-04-26T22:01:30.486Z,94911.00
2023-04-26T22:02:30.610Z,94909.00
2023-04-26T22:03:30.731Z,94913.00
2023-04-26T22:04:30.615Z,94913.00
2023-04-26T22:05:30.594Z,94911.00
2023-04-26T22:06:30.597Z,94916.00
2023-04-26T22:07:30.657Z,94914.00
2023-04-26T22:08:30.666Z,94916.00
2023-04-26T22:09:30.659Z,94916.00
2023-04-26T22:10:30.673Z,94914.00
2023-04-26T22:11:30.718Z,94918.00
2023-04-26T22:12:30.695Z,94916.00
2023-04-26T22:13:30.701Z,94918.00
2023-04-26T22:14:30.738Z,94916.00
2023-04-26T22:15:30.862Z,94918.00
2023-04-26T22:16:30.760Z,94918.00
2023-04-26T22:17:30.822Z,94918.00
2023-04-26T22:18:30.810Z,94920.00
2023-04-26T22:19:30.790Z,94920.00
2023-04-26T22:20:30.832Z,94920.00
2023-04-26T22:21:30.850Z,94922.00
2023-04-26T22:22:30.896Z,94920.00
2023-04-26T22:23:30.892Z,94920.00
2023-04-26T22:24:30.917Z,94920.00
2023-04-26T22:25:30.975Z,94924.00
2023-04-26T22:26:30.991Z,94924.00
2023-04-26T22:27:30.991Z,94924.00
2023-04-26T22:28:31.008Z,94924.00
2023-04-26T22:29:31.001Z,94924.00
2023-04-26T22:30:31.020Z,94924.00
2023-04-26T22:31:31.215Z,94926.00
2023-04-26T22:32:31.121Z,94922.00
2023-04-26T22:33:31.092Z,94924.00
2023-04-26T22:34:31.141Z,94928.00
2023-04-26T22:35:31.159Z,94926.00
2023-04-26T22:36:31.195Z,94928.00
2023-04-26T22:37:31.250Z,94930.00
2023-04-26T22:38:31.219Z,94930.00
2023-04-26T22:39:31.273Z,94932.00
2023-04-26T22:40:31.327Z,94932.00
2023-04-26T22:41:31.396Z,94936.00
2023-04-26T22:42:31.424Z,94938.00
2023-04-26T22:43:31.451Z,94934.00
2023-04-26T22:44:31.448Z,94936.00
2023-04-26T22:45:31.522Z,94936.00
2023-04-26T22:46:32.449Z,94936.00
2023-04-26T22:47:31.712Z,94942.00
2023-04-26T22:48:31.655Z,94942.00
2023-04-26T22:49:31.708Z,94942.00
2023-04-26T22:50:31.719Z,94944.00
2023-04-26T22:51:31.749Z,94944.00
2023-04-26T22:52:32.276Z,94944.00
2023-04-26T22:53:31.777Z,94944.00
2023-04-26T22:54:31.800Z,94944.00
2023-04-26T22:55:31.874Z,94946.00
2023-04-26T22:56:31.846Z,94946.00
2023-04-26T22:57:31.864Z,94944.00
2023-04-26T22:58:31.917Z,94946.00
2023-04-26T22:59:31.959Z,94948.00
2023-04-26T23:00:32.028Z,94948.00
2023-04-26T23:01:31.997Z,94948.00
2023-04-26T23:02:32.118Z,94950.00
2023-04-26T23:03:32.072Z,94950.00
2023-04-26T23:04:32.092Z,94956.00
2023-04-26T23:05:32.100Z,94956.00
2023-04-26T23:06:32.120Z,94958.00
2023-04-26T23:07:32.181Z,94960.00
2023-04-26T23:08:32.222Z,94963.00
2023-04-26T23:09:32.300Z,94963.00
2023-04-26T23:10:32.244Z,94965.00
2023-04-26T23:11:32.310Z,94965.00
2023-04-26T23:12:32.358Z,94965.00
2023-04-26T23:13:32.433Z,94965.00
2023-04-26T23:14:32.425Z,94965.00
2023-04-26T23:15:32.448Z,94963.00
2023-04-26T23:16:32.531Z,94967.00
2023-04-26T23:17:32.514Z,94967.00
2023-04-26T23:18:32.564Z,94969.00
2023-04-26T23:19:32.617Z,94969.00
2023-04-26T23:20:32.605Z,94973.00
2023-04-26T23:21:32.613Z,94973.00
2023-04-26T23:22:32.697Z,94969.00
2023-04-26T23:23:32.697Z,94969.00
2023-04-26T23:24:32.707Z,94969.00
2023-04-26T23:25:32.701Z,94971.00
2023-04-26T23:26:32.761Z,94971.00
2023-04-26T23:27:32.835Z,94971.00
2023-04-26T23:28:32.829Z,94969.00
2023-04-26T23:29:32.862Z,94971.00
2023-04-26T23:30:32.891Z,94973.00
2023-04-26T23:31:32.976Z,94971.00
2023-04-26T23:32:32.987Z,94969.00
2023-04-26T23:33:33.000Z,94967.00
2023-04-26T23:34:33.012Z,94967.00
2023-04-26T23:35:33.101Z,94965.00
2023-04-26T23:36:33.142Z,94967.00
2023-04-26T23:37:33.204Z,94967.00
2023-04-26T23:38:33.212Z,94967.00
2023-04-26T23:39:33.208Z,94969.00
2023-04-26T23:40:33.279Z,94969.00
2023-04-26T23:41:33.293Z,94967.00
2023-04-26T23:42:33.360Z,94969.00
2023-04-26T23:43:33.332Z,94969.00
2023-04-26T23:44:33.384Z,94971.00
2023-04-26T23:45:33.410Z,94971.00
2023-04-26T23:46:33.478Z,94971.00
2023-04-26T23:47:33.483Z,94971.00
2023-04-26T23:48:33.446Z,94967.00
2023-04-26T23:49:33.485Z,94971.00
2023-04-26T23:50:33.547Z,94969.00
2023-04-26T23:51:33.604Z,94971.00
2023-04-26T23:52:33.648Z,94969.00
2023-04-26T23:53:33.607Z,94971.00
2023-04-26T23:54:33.605Z,94971.00
2023-04-26T23:55:33.633Z,94967.00
2023-04-26T23:56:33.634Z,94965.00
2023-04-26T23:57:33.674Z,94967.00
2023-04-26T23:58:33.689Z,94969.00
2023-04-26T23:59:33.724Z,94967.00
